Time;durP1;ratioP1;P1;durP2;ratioP2;P2;SDS_P1;SDS_P2;PMS_P1;PMS_P2;Temp;Humidity;BMP_temperature;BMP_pressure;BME280_temperature;BME280_humidity;BME280_pressure;Samples;Min_cycle;Max_cycle;Signal;HPM_P1;HPM_P2
2023/03/04 00:01:41;;;;;;;41.83;22.47;;;0.20;99.90;;;;;;4990600;28;20588;-73
2023/03/04 00:04:07;;;;;;;51.47;24.50;;;0.20;99.90;;;;;;4993001;28;20268;-73
2023/03/04 00:06:32;;;;;;;52.20;22.63;;;0.10;99.90;;;;;;4980245;28;20207;-73
2023/03/04 00:08:58;;;;;;;48.47;25.30;;;0.10;99.90;;;;;;4984878;28;20177;-75
2023/03/04 00:11:23;;;;;;;45.00;21.80;;;0.10;99.90;;;;;;4985671;28;20214;-73
2023/03/04 00:13:49;;;;;;;49.40;23.87;;;0.10;99.90;;;;;;4985688;28;20234;-73
2023/03/04 00:16:15;;;;;;;52.87;24.47;;;0.10;99.90;;;;;;4978840;28;20874;-74
2023/03/04 00:18:40;;;;;;;47.57;21.93;;;0.10;99.90;;;;;;4993880;28;20436;-73
2023/03/04 00:21:06;;;;;;;52.30;25.37;;;0.10;99.90;;;;;;4976307;28;20628;-74
2023/03/04 00:23:31;;;;;;;51.03;23.23;;;0.10;99.90;;;;;;4985961;28;20190;-74
2023/03/04 00:25:57;;;;;;;43.80;22.53;;;0.00;99.90;;;;;;4985759;28;20284;-75
2023/03/04 00:28:22;;;;;;;43.37;20.30;;;0.00;99.90;;;;;;4992540;28;20618;-74
2023/03/04 00:30:48;;;;;;;44.77;21.33;;;-0.10;99.90;;;;;;4985001;28;20728;-73
2023/03/04 00:33:14;;;;;;;59.67;23.60;;;-0.10;99.90;;;;;;4990466;28;20183;-74
2023/03/04 00:35:40;;;;;;;46.90;23.90;;;-0.10;99.90;;;;;;4986655;28;20286;-73
2023/03/04 00:38:05;;;;;;;44.20;23.50;;;-0.20;99.90;;;;;;4990433;28;20198;-75
2023/03/04 00:40:31;;;;;;;47.80;22.13;;;-0.20;99.90;;;;;;4988305;28;20549;-74
2023/03/04 00:42:56;;;;;;;45.43;23.27;;;-0.20;99.90;;;;;;4988915;28;20319;-73
2023/03/04 00:45:22;;;;;;;49.97;22.20;;;-0.20;99.90;;;;;;4987223;28;20207;-74
2023/03/04 00:47:47;;;;;;;43.97;22.20;;;-0.20;99.90;;;;;;4977358;28;20249;-73
2023/03/04 00:50:13;;;;;;;47.47;23.53;;;-0.30;99.90;;;;;;4985474;28;20232;-73
2023/03/04 00:52:38;;;;;;;47.80;24.00;;;-0.30;99.90;;;;;;4985978;28;20251;-73
2023/03/04 00:55:06;;;;;;;49.27;22.17;;;-0.30;99.90;;;;;;4982748;28;20274;-72
2023/03/04 00:57:31;;;;;;;37.03;19.33;;;-0.30;99.90;;;;;;4980146;28;20222;-72
2023/03/04 00:59:57;;;;;;;44.83;21.90;;;-0.30;99.90;;;;;;4992642;28;20506;-75
2023/03/04 01:02:22;;;;;;;48.80;22.70;;;-0.40;99.90;;;;;;4992591;28;20669;-72
2023/03/04 01:04:47;;;;;;;43.83;21.70;;;-0.40;99.90;;;;;;4976840;28;20209;-73
2023/03/04 01:07:13;;;;;;;44.53;22.13;;;-0.40;99.90;;;;;;4977255;28;20177;-74
2023/03/04 01:09:38;;;;;;;38.33;20.43;;;-0.40;99.90;;;;;;4978489;28;20237;-72
2023/03/04 01:12:04;;;;;;;46.17;22.10;;;-0.40;99.90;;;;;;4991742;28;20209;-74
2023/03/04 01:14:30;;;;;;;43.80;21.87;;;-0.40;99.90;;;;;;4984672;28;20212;-74
2023/03/04 01:16:55;;;;;;;48.63;21.90;;;-0.40;99.90;;;;;;4992383;28;20189;-73
2023/03/04 01:19:21;;;;;;;39.30;20.47;;;-0.40;99.90;;;;;;4992350;28;20185;-72
2023/03/04 01:21:46;;;;;;;45.30;23.23;;;-0.40;99.90;;;;;;4991934;28;20208;-73
2023/03/04 01:24:12;;;;;;;41.47;19.50;;;-0.40;99.90;;;;;;4984277;28;20176;-75
2023/03/04 01:26:37;;;;;;;46.17;20.60;;;-0.40;99.90;;;;;;4992570;28;20888;-73
2023/03/04 01:29:03;;;;;;;40.37;21.70;;;-0.40;99.90;;;;;;4991760;28;20230;-72
2023/03/04 01:31:28;;;;;;;41.60;22.53;;;-0.40;99.90;;;;;;4989595;28;20220;-74
2023/03/04 01:33:54;;;;;;;44.17;21.27;;;-0.50;99.90;;;;;;4984000;28;20184;-73
2023/03/04 01:36:20;;;;;;;47.83;21.60;;;-0.40;99.90;;;;;;4984623;28;20189;-73
2023/03/04 01:38:45;;;;;;;46.87;23.23;;;-0.40;99.90;;;;;;4992359;28;20571;-74
2023/03/04 01:41:12;;;;;;;47.67;22.50;;;-0.40;99.90;;;;;;4983714;28;20207;-73
2023/03/04 01:43:38;;;;;;;44.73;24.53;;;-0.40;99.90;;;;;;4979270;28;20238;-73
2023/03/04 01:46:04;;;;;;;53.50;24.87;;;-0.40;99.90;;;;;;4983966;28;20517;-74
2023/03/04 01:48:36;;;;;;;50.30;24.23;;;-0.30;99.90;;;;;;4992691;28;20467;-74
2023/03/04 01:51:04;;;;;;;48.17;23.00;;;-0.30;99.90;;;;;;4982926;28;20531;-74
2023/03/04 01:53:30;;;;;;;53.03;23.90;;;-0.30;99.90;;;;;;4991129;28;20815;-74
2023/03/04 01:56:00;;;;;;;61.80;22.90;;;-0.30;99.90;;;;;;4993043;28;20903;-74
2023/03/04 01:58:29;;;;;;;48.47;23.63;;;-0.30;99.90;;;;;;4992631;28;20428;-73
2023/03/04 03:31:32;;;;;;;36.20;18.23;;;-0.60;99.90;;;;;;5649550;22;20507;-74
2023/03/04 03:33:57;;;;;;;38.17;20.43;;;-0.70;99.90;;;;;;5011427;28;20424;-74
2023/03/04 03:36:23;;;;;;;47.27;19.90;;;-0.70;99.90;;;;;;5022050;28;20200;-73
2023/03/04 03:38:48;;;;;;;42.77;20.00;;;-0.70;99.90;;;;;;5022265;28;20668;-73
2023/03/04 03:41:14;;;;;;;44.03;20.70;;;-0.70;99.90;;;;;;5016236;28;20212;-74
2023/03/04 03:43:39;;;;;;;41.37;20.03;;;-0.70;99.90;;;;;;5010117;28;20194;-73
2023/03/04 03:46:05;;;;;;;48.77;19.97;;;-0.80;99.90;;;;;;5010767;28;20213;-74
2023/03/04 03:48:30;;;;;;;45.33;22.20;;;-0.80;99.90;;;;;;5013800;28;20223;-75
2023/03/04 03:50:56;;;;;;;38.63;20.30;;;-0.80;99.90;;;;;;5008261;28;20209;-74
2023/03/04 03:53:21;;;;;;;37.53;19.77;;;-0.90;99.90;;;;;;4997926;28;20572;-74
2023/03/04 03:55:47;;;;;;;38.27;19.40;;;-0.90;99.90;;;;;;4996790;28;20209;-75
2023/03/04 03:58:13;;;;;;;38.63;18.10;;;-0.90;99.90;;;;;;5011873;28;20680;-74
2023/03/04 04:00:38;;;;;;;39.23;18.70;;;-0.90;99.90;;;;;;5006122;28;20207;-73
2023/03/04 04:03:04;;;;;;;40.47;19.67;;;-1.00;99.90;;;;;;5000987;28;20413;-74
2023/03/04 04:05:30;;;;;;;37.70;18.87;;;-1.00;99.90;;;;;;5003317;28;20274;-75
2023/03/04 04:07:55;;;;;;;42.03;19.87;;;-1.10;99.90;;;;;;5008434;28;20219;-74
2023/03/04 04:10:21;;;;;;;33.93;19.00;;;-1.10;99.90;;;;;;5012770;28;20185;-74
2023/03/04 04:12:46;;;;;;;39.90;20.57;;;-1.10;99.90;;;;;;4991312;28;20657;-75
2023/03/04 04:15:12;;;;;;;37.33;18.50;;;-1.10;99.90;;;;;;5004512;28;20204;-73
2023/03/04 04:17:38;;;;;;;41.63;19.63;;;-1.20;99.90;;;;;;5007229;28;20216;-74
2023/03/04 04:20:05;;;;;;;39.10;19.77;;;-1.20;99.90;;;;;;5004593;28;20685;-74
2023/03/04 04:22:31;;;;;;;41.07;20.37;;;-1.20;99.90;;;;;;4985313;28;20876;-74
2023/03/04 04:24:56;;;;;;;34.70;18.87;;;-1.30;99.90;;;;;;5005814;28;20473;-73
2023/03/04 04:27:22;;;;;;;38.10;18.77;;;-1.30;99.90;;;;;;5004554;28;20191;-74
2023/03/04 04:29:47;;;;;;;43.80;20.47;;;-1.30;99.90;;;;;;5013103;28;20183;-74
2023/03/04 04:32:13;;;;;;;37.70;19.13;;;-1.30;99.90;;;;;;5012049;28;20227;-73
2023/03/04 04:34:38;;;;;;;37.93;18.43;;;-1.30;99.90;;;;;;5007753;28;20199;-73
2023/03/04 04:37:04;;;;;;;43.80;20.20;;;-1.40;99.90;;;;;;5011544;28;20220;-73
2023/03/04 04:39:29;;;;;;;40.70;18.53;;;-1.30;99.90;;;;;;5005275;28;20681;-76
2023/03/04 04:41:55;;;;;;;42.63;19.43;;;-1.40;99.90;;;;;;5012582;28;20292;-73
2023/03/04 04:44:20;;;;;;;35.70;20.03;;;-1.40;99.90;;;;;;5000826;28;20196;-73
2023/03/04 04:46:46;;;;;;;48.73;22.17;;;-1.40;99.90;;;;;;5012685;28;20198;-75
2023/03/04 04:49:11;;;;;;;34.70;18.83;;;-1.40;99.90;;;;;;5012076;28;20293;-74
2023/03/04 04:51:38;;;;;;;38.00;19.80;;;-1.50;99.90;;;;;;5012744;28;20211;-73
2023/03/04 04:54:04;;;;;;;38.70;20.07;;;-1.50;99.90;;;;;;5003696;28;20608;-74
2023/03/04 04:56:30;;;;;;;41.03;20.73;;;-1.50;99.90;;;;;;5005311;28;20438;-74
2023/03/04 04:58:58;;;;;;;42.23;19.70;;;-1.50;99.90;;;;;;5004970;28;20781;-73
2023/03/04 05:01:25;;;;;;;40.20;19.70;;;-1.50;99.90;;;;;;5011854;28;20447;-74
2023/03/04 05:03:54;;;;;;;36.73;18.57;;;-1.50;99.90;;;;;;5000002;28;21109;-74
2023/03/04 05:06:21;;;;;;;35.53;18.77;;;-1.50;99.90;;;;;;5008036;28;20522;-73
2023/03/04 05:08:47;;;;;;;41.10;19.23;;;-1.50;99.90;;;;;;4999006;28;20434;-73
2023/03/04 05:11:13;;;;;;;37.60;19.47;;;-1.60;99.90;;;;;;5010411;28;20511;-74
2023/03/04 05:13:38;;;;;;;38.03;18.53;;;-1.60;99.90;;;;;;5005268;28;20442;-77
2023/03/04 05:16:04;;;;;;;43.77;21.13;;;-1.70;99.90;;;;;;5004064;28;20616;-73
2023/03/04 05:18:30;;;;;;;42.17;19.70;;;-1.70;99.90;;;;;;5003695;28;20282;-73
2023/03/04 05:20:59;;;;;;;44.40;20.70;;;-1.70;99.90;;;;;;5011910;28;20445;-75
2023/03/04 05:23:26;;;;;;;35.07;20.07;;;-1.70;99.90;;;;;;5003903;28;20199;-75
2023/03/04 05:25:52;;;;;;;48.30;21.23;;;-1.70;99.90;;;;;;5000793;28;20489;-75
2023/03/04 05:28:18;;;;;;;44.43;19.87;;;-1.70;99.90;;;;;;5011474;28;20536;-75
2023/03/04 05:30:44;;;;;;;50.30;21.67;;;-1.70;99.90;;;;;;5006129;28;20212;-75
2023/03/04 05:33:12;;;;;;;42.80;20.13;;;-1.70;99.90;;;;;;5001986;28;20426;-74
2023/03/04 05:35:39;;;;;;;41.23;19.90;;;-1.70;99.90;;;;;;5001673;28;20439;-75
2023/03/04 05:38:08;;;;;;;35.77;18.97;;;-1.80;99.90;;;;;;5003364;28;20496;-76
2023/03/04 05:40:33;;;;;;;40.17;19.50;;;-1.80;99.90;;;;;;5011690;28;20470;-74
2023/03/04 05:42:59;;;;;;;45.70;20.20;;;-1.90;99.90;;;;;;4991434;28;20413;-75
2023/03/04 05:45:26;;;;;;;31.93;18.13;;;-1.80;99.90;;;;;;5006452;28;20210;-74
2023/03/04 05:47:51;;;;;;;43.40;19.73;;;-1.90;99.90;;;;;;5003327;28;20610;-73
2023/03/04 05:50:17;;;;;;;36.83;20.03;;;-1.80;99.90;;;;;;5009216;28;20499;-73
2023/03/04 05:52:43;;;;;;;39.13;19.17;;;-1.80;99.90;;;;;;5005468;28;20783;-73
2023/03/04 05:55:09;;;;;;;43.83;19.43;;;-1.80;99.90;;;;;;5007140;28;20460;-73
2023/03/04 05:57:35;;;;;;;48.97;21.67;;;-1.80;99.90;;;;;;5011116;28;20277;-73
2023/03/04 06:00:01;;;;;;;45.70;19.27;;;-1.80;99.90;;;;;;5010611;28;20440;-73
2023/03/04 06:02:26;;;;;;;42.20;18.60;;;-1.80;99.90;;;;;;5010654;28;20301;-73
2023/03/04 06:04:51;;;;;;;41.00;18.23;;;-1.80;99.90;;;;;;5004762;28;20451;-73
2023/03/04 06:07:17;;;;;;;38.43;20.07;;;-1.80;99.90;;;;;;5006447;28;20651;-73
2023/03/04 06:09:44;;;;;;;46.63;20.20;;;-1.80;99.90;;;;;;5010519;28;20221;-74
2023/03/04 06:12:10;;;;;;;41.83;18.20;;;-1.80;99.90;;;;;;5010316;28;20202;-73
2023/03/04 06:14:35;;;;;;;40.53;19.60;;;-1.80;99.90;;;;;;5004885;28;20476;-73
2023/03/04 06:17:01;;;;;;;43.03;18.50;;;-1.80;99.90;;;;;;5006706;28;20469;-74
2023/03/04 06:19:26;;;;;;;42.23;20.20;;;-1.70;99.90;;;;;;5010208;28;20191;-72
2023/03/04 06:21:52;;;;;;;44.70;18.83;;;-1.70;99.90;;;;;;5005942;28;20644;-73
2023/03/04 06:24:17;;;;;;;37.20;19.03;;;-1.70;99.90;;;;;;5008603;28;20201;-73
2023/03/04 06:26:43;;;;;;;43.53;18.47;;;-1.70;99.90;;;;;;5006619;28;20253;-74
2023/03/04 06:29:09;;;;;;;41.27;19.73;;;-1.60;99.90;;;;;;5012485;28;20191;-74
2023/03/04 06:31:34;;;;;;;44.30;21.37;;;-1.50;99.90;;;;;;5015307;28;20217;-73
2023/03/04 06:34:00;;;;;;;41.77;21.23;;;-1.40;99.90;;;;;;5004829;28;20192;-73
2023/03/04 06:36:25;;;;;;;39.00;19.13;;;-1.50;99.90;;;;;;5015642;28;20253;-73
2023/03/04 06:38:51;;;;;;;46.17;19.10;;;-1.30;99.90;;;;;;5017006;28;20206;-72
2023/03/04 06:41:17;;;;;;;36.70;18.23;;;-1.20;99.90;;;;;;5016658;28;20683;-74
2023/03/04 06:43:42;;;;;;;39.07;18.37;;;-1.10;99.90;;;;;;5011223;28;20279;-75
2023/03/04 06:46:08;;;;;;;38.83;19.63;;;-0.90;99.90;;;;;;5016532;28;20262;-73
2023/03/04 06:48:34;;;;;;;39.47;19.70;;;-0.70;99.90;;;;;;5017100;28;20186;-73
2023/03/04 06:51:07;;;;;;;38.97;20.20;;;-0.70;99.90;;;;;;5016847;28;20453;-73
2023/03/04 06:53:33;;;;;;;35.70;19.17;;;-0.50;99.90;;;;;;5005477;28;20600;-74
2023/03/04 06:55:59;;;;;;;49.80;20.93;;;-0.50;99.90;;;;;;5006475;28;20525;-73
2023/03/04 06:58:24;;;;;;;51.30;21.83;;;-0.50;99.90;;;;;;5014685;28;20197;-73
2023/03/04 07:00:50;;;;;;;39.37;19.73;;;-0.50;99.90;;;;;;5016632;28;20225;-73
2023/03/04 07:03:15;;;;;;;45.23;21.77;;;-0.50;99.90;;;;;;5011110;28;20261;-74
2023/03/04 07:05:42;;;;;;;42.83;20.13;;;-0.50;99.90;;;;;;5017098;28;20777;-74
2023/03/04 07:08:07;;;;;;;46.93;20.57;;;-0.40;99.90;;;;;;5016821;28;20270;-74
2023/03/04 07:10:34;;;;;;;45.80;21.40;;;-0.50;99.90;;;;;;5016851;28;21247;-74
2023/03/04 07:13:00;;;;;;;46.30;21.23;;;-0.40;99.90;;;;;;5011637;28;20276;-73
2023/03/04 07:15:25;;;;;;;48.87;23.67;;;-0.30;99.90;;;;;;5017241;28;20798;-73
2023/03/04 07:17:51;;;;;;;44.03;20.40;;;-0.30;99.90;;;;;;5020766;28;20440;-73
2023/03/04 07:20:17;;;;;;;47.97;21.50;;;-0.20;99.90;;;;;;5011183;28;20222;-73
2023/03/04 07:22:42;;;;;;;49.70;24.50;;;-0.10;99.90;;;;;;5011419;28;20303;-75
2023/03/04 07:25:08;;;;;;;45.40;20.90;;;0.00;99.90;;;;;;5016777;28;20793;-72
2023/03/04 07:27:34;;;;;;;50.13;21.97;;;0.20;99.90;;;;;;5016750;28;20198;-74
2023/03/04 07:29:59;;;;;;;48.93;22.00;;;0.30;99.90;;;;;;5016458;28;20657;-73
2023/03/04 07:32:25;;;;;;;43.33;20.60;;;0.30;99.90;;;;;;5008349;28;20213;-72
2023/03/04 07:34:50;;;;;;;44.60;21.50;;;0.40;99.90;;;;;;5016510;28;20197;-72
2023/03/04 07:37:16;;;;;;;42.20;20.80;;;0.50;99.90;;;;;;5016073;28;20191;-73
2023/03/04 07:39:41;;;;;;;45.20;19.83;;;0.60;99.90;;;;;;5016303;28;20677;-74
2023/03/04 07:42:07;;;;;;;46.07;19.07;;;0.70;99.90;;;;;;5007359;28;20234;-74
2023/03/04 07:44:32;;;;;;;46.07;19.50;;;0.80;99.90;;;;;;5012735;28;20205;-73
2023/03/04 07:46:58;;;;;;;47.50;18.93;;;0.90;99.90;;;;;;5013341;28;20205;-75
2023/03/04 07:49:23;;;;;;;35.10;18.37;;;1.00;99.90;;;;;;5012926;28;20628;-73
2023/03/04 07:51:49;;;;;;;40.23;17.20;;;1.00;99.90;;;;;;5010922;28;20265;-74
2023/03/04 07:54:14;;;;;;;32.37;17.90;;;1.10;99.90;;;;;;5004826;28;20247;-75
2023/03/04 07:56:40;;;;;;;37.27;16.30;;;1.10;99.90;;;;;;5011217;28;20633;-74
2023/03/04 07:59:05;;;;;;;39.60;17.53;;;1.10;99.90;;;;;;5013318;28;20273;-74
2023/03/04 08:01:35;;;;;;;30.93;17.37;;;1.10;99.90;;;;;;5013138;28;20215;-74
2023/03/04 08:04:03;;;;;;;34.67;16.03;;;1.10;99.90;;;;;;5007717;28;20199;-74
2023/03/04 08:06:29;;;;;;;44.53;17.67;;;1.10;99.90;;;;;;5011019;28;20551;-72
2023/03/04 08:09:00;;;;;;;32.73;16.97;;;1.20;99.90;;;;;;5012854;28;20422;-73
2023/03/04 08:11:28;;;;;;;33.23;16.97;;;1.20;99.90;;;;;;5012924;28;20298;-74
2023/03/04 08:13:53;;;;;;;36.27;17.60;;;1.20;99.90;;;;;;5008169;28;20440;-71
2023/03/04 08:16:21;;;;;;;40.93;16.90;;;1.20;99.90;;;;;;5011139;28;20418;-71
2023/03/04 08:18:50;;;;;;;31.57;16.43;;;1.30;99.90;;;;;;5012922;28;20187;-71
2023/03/04 08:21:20;;;;;;;42.27;18.17;;;1.30;99.90;;;;;;5011207;28;20459;-71
2023/03/04 08:23:46;;;;;;;34.87;17.57;;;1.40;99.90;;;;;;5007843;28;20441;-70
2023/03/04 08:26:15;;;;;;;34.70;17.07;;;1.40;99.90;;;;;;5012723;28;20462;-71
2023/03/04 08:28:41;;;;;;;39.60;19.50;;;1.40;99.90;;;;;;4997869;28;20389;-71
2023/03/04 08:31:06;;;;;;;40.10;18.63;;;1.40;99.90;;;;;;5012372;28;20469;-71
2023/03/04 08:33:33;;;;;;;43.60;21.13;;;1.50;99.90;;;;;;5006599;28;20192;-71
2023/03/04 08:35:58;;;;;;;36.57;18.13;;;1.50;99.90;;;;;;5006587;28;20190;-71
2023/03/04 08:38:24;;;;;;;35.80;18.67;;;1.50;99.90;;;;;;5010185;28;20445;-71
2023/03/04 08:40:54;;;;;;;37.57;18.70;;;1.50;99.90;;;;;;5008987;28;20547;-72
2023/03/04 08:43:20;;;;;;;44.57;19.47;;;1.60;99.90;;;;;;5004308;28;20438;-72
2023/03/04 08:45:46;;;;;;;39.60;18.53;;;1.60;99.90;;;;;;5012281;28;20471;-72
2023/03/04 08:48:12;;;;;;;39.63;18.53;;;1.60;99.90;;;;;;5012504;28;20421;-72
2023/03/04 08:50:37;;;;;;;36.60;18.40;;;1.70;99.90;;;;;;5006944;28;20195;-72
2023/03/04 08:53:03;;;;;;;41.33;18.63;;;1.70;99.90;;;;;;5002888;28;20241;-71
2023/03/04 08:55:28;;;;;;;39.03;18.27;;;1.80;99.90;;;;;;5012047;28;20732;-74
2023/03/04 08:57:54;;;;;;;40.00;19.77;;;1.90;99.90;;;;;;5012216;28;20211;-74
2023/03/04 09:00:21;;;;;;;34.70;16.90;;;2.00;99.90;;;;;;5007060;28;20556;-71
2023/03/04 09:02:46;;;;;;;38.10;17.53;;;2.00;99.90;;;;;;5006789;28;20192;-76
2023/03/04 09:05:12;;;;;;;36.60;18.00;;;2.00;99.90;;;;;;4991453;28;20555;-73
2023/03/04 09:07:37;;;;;;;37.80;22.00;;;2.00;99.90;;;;;;5001214;28;20419;-73
2023/03/04 09:10:03;;;;;;;38.10;20.03;;;1.90;99.90;;;;;;5011526;28;20199;-73
2023/03/04 09:12:29;;;;;;;36.10;17.97;;;1.90;99.90;;;;;;5006922;28;20205;-73
2023/03/04 09:14:55;;;;;;;37.67;18.37;;;2.00;99.90;;;;;;5000961;28;20447;-73
2023/03/04 09:17:20;;;;;;;37.00;18.60;;;2.10;99.90;;;;;;5001972;28;20214;-73
2023/03/04 09:19:46;;;;;;;34.83;16.90;;;2.20;99.90;;;;;;5012040;28;20261;-73
2023/03/04 09:22:11;;;;;;;32.83;18.10;;;2.20;99.90;;;;;;5005129;28;20224;-73
2023/03/04 09:24:37;;;;;;;36.87;18.63;;;2.20;99.90;;;;;;5011224;28;20192;-73
2023/03/04 09:27:02;;;;;;;34.90;16.90;;;2.10;99.90;;;;;;5005578;28;20652;-74
2023/03/04 09:29:28;;;;;;;36.60;17.57;;;2.20;99.90;;;;;;5010277;28;20219;-74
2023/03/04 09:31:53;;;;;;;34.53;18.70;;;2.20;99.90;;;;;;5007833;28;20227;-73
2023/03/04 09:34:19;;;;;;;36.60;17.50;;;2.40;99.90;;;;;;5002917;28;20189;-74
2023/03/04 09:36:44;;;;;;;37.10;18.67;;;2.40;99.90;;;;;;5014233;28;20660;-75
2023/03/04 09:39:10;;;;;;;35.00;17.10;;;2.40;99.90;;;;;;5012560;28;20219;-74
2023/03/04 09:41:57;;;;;;;34.50;17.67;;;2.50;99.90;;;;;;5009209;28;20970;-74
2023/03/04 09:44:26;;;;;;;33.43;15.80;;;2.60;99.90;;;;;;5009148;28;20187;-74
2023/03/04 09:46:54;;;;;;;28.60;16.43;;;2.60;99.90;;;;;;5011676;28;20476;-74
2023/03/04 09:49:20;;;;;;;37.83;17.87;;;2.80;99.90;;;;;;5003513;28;20962;-74
2023/03/04 09:51:55;;;;;;;30.53;18.07;;;2.90;99.90;;;;;;4992878;28;20545;-74
2023/03/04 09:54:49;;;;;;;38.00;20.37;;;3.10;99.90;;;;;;5002888;28;20964;-75
2023/03/04 09:57:23;;;;;;;38.93;18.23;;;3.00;99.90;;;;;;5011449;28;20446;-75
2023/03/04 10:00:01;;;;;;;32.37;18.50;;;3.20;99.90;;;;;;5002962;28;20419;-75
2023/03/04 10:03:10;;;;;;;37.43;19.73;;;3.30;99.90;;;;;;5002420;28;20504;-73
2023/03/04 10:05:52;;;;;;;34.50;17.70;;;3.40;99.90;;;;;;5004398;28;20914;-74
2023/03/04 10:08:27;;;;;;;32.87;17.60;;;3.60;99.90;;;;;;5011147;28;20845;-74
2023/03/04 10:10:56;;;;;;;31.00;17.70;;;3.60;99.90;;;;;;4997014;28;20970;-71
2023/03/04 10:13:32;;;;;;;32.60;17.83;;;3.70;99.90;;;;;;5002244;28;20419;-73
2023/03/04 10:16:00;;;;;;;35.30;19.10;;;3.70;99.90;;;;;;5010617;28;20429;-72
2023/03/04 10:18:38;;;;;;;43.60;20.60;;;3.70;99.90;;;;;;5003841;28;20425;-71
2023/03/04 10:21:13;;;;;;;32.20;18.60;;;3.80;99.90;;;;;;4998306;28;20926;-72
2023/03/04 10:23:40;;;;;;;33.87;20.10;;;3.90;99.90;;;;;;4996437;28;20449;-74
2023/03/04 10:26:15;;;;;;;54.53;28.23;;;3.90;99.90;;;;;;5010725;28;20484;-71
2023/03/04 10:28:42;;;;;;;32.77;19.23;;;3.80;99.90;;;;;;5010156;28;20416;-72
2023/03/04 10:31:07;;;;;;;33.80;20.10;;;3.90;99.90;;;;;;5003384;28;20460;-72
2023/03/04 10:33:36;;;;;;;34.37;18.80;;;3.90;99.90;;;;;;5000493;28;20440;-72
2023/03/04 10:36:12;;;;;;;40.43;20.90;;;3.80;99.90;;;;;;4998717;28;20208;-75
2023/03/04 10:38:40;;;;;;;35.00;21.00;;;3.80;99.90;;;;;;5010593;28;20821;-74
2023/03/04 10:41:16;;;;;;;41.53;22.50;;;3.80;99.90;;;;;;5004187;28;20477;-74
2023/03/04 10:43:45;;;;;;;39.40;20.70;;;3.90;99.90;;;;;;4998814;28;20518;-74
2023/03/04 10:46:11;;;;;;;47.97;25.27;;;3.80;99.90;;;;;;5007670;28;20498;-74
2023/03/04 10:48:40;;;;;;;42.30;22.90;;;3.80;99.90;;;;;;5006339;28;20414;-74
2023/03/04 10:51:19;;;;;;;46.80;24.60;;;3.90;99.90;;;;;;5004076;28;20458;-74
2023/03/04 10:53:50;;;;;;;46.30;24.20;;;4.00;99.90;;;;;;4994586;28;20443;-72
2023/03/04 10:56:33;;;;;;;41.87;22.03;;;4.00;99.90;;;;;;5006240;28;20520;-71
2023/03/04 10:59:36;;;;;;;43.60;24.00;;;4.00;99.90;;;;;;4994504;28;21189;-72
2023/03/04 11:02:21;;;;;;;49.67;25.17;;;4.00;99.90;;;;;;4998921;28;20458;-72
2023/03/04 11:05:04;;;;;;;55.20;24.43;;;3.90;99.90;;;;;;4986877;28;20483;-73
2023/03/04 11:07:29;;;;;;;44.77;26.87;;;3.90;99.90;;;;;;5010378;28;20426;-72
2023/03/04 11:10:27;;;;;;;51.40;28.30;;;4.00;99.90;;;;;;5001755;28;20431;-71
2023/03/04 11:13:00;;;;;;;50.57;25.03;;;4.10;99.90;;;;;;4992539;28;20184;-74
2023/03/04 11:15:27;;;;;;;46.80;24.80;;;4.00;99.90;;;;;;5004963;28;20436;-74
2023/03/04 11:17:58;;;;;;;54.97;27.20;;;4.10;99.90;;;;;;5014900;28;20409;-72
2023/03/04 11:20:38;;;;;;;48.67;26.90;;;4.00;99.90;;;;;;5010579;28;20443;-72
2023/03/04 11:23:11;;;;;;;50.27;25.90;;;3.90;99.90;;;;;;5010851;28;20824;-72
2023/03/04 11:25:45;;;;;;;44.70;25.60;;;4.00;99.90;;;;;;5012246;28;20506;-72
2023/03/04 11:28:14;;;;;;;53.57;26.10;;;4.00;99.90;;;;;;5005924;28;20464;-72
2023/03/04 11:30:53;;;;;;;50.50;26.97;;;4.00;99.90;;;;;;5013276;28;20466;-72
2023/03/04 11:33:42;;;;;;;48.50;26.40;;;4.00;99.90;;;;;;5010128;28;20429;-72
2023/03/04 11:36:53;;;;;;;51.00;26.63;;;4.10;99.90;;;;;;5003243;28;20566;-72
2023/03/04 11:40:00;;;;;;;52.27;27.60;;;4.10;99.90;;;;;;4986291;28;20785;-73
2023/03/04 11:42:42;;;;;;;52.03;26.67;;;4.10;99.90;;;;;;5007203;28;20485;-75
2023/03/04 11:45:16;;;;;;;55.53;28.60;;;4.10;99.90;;;;;;5009956;28;20547;-72
2023/03/04 11:47:51;;;;;;;57.37;29.50;;;4.10;99.90;;;;;;5013315;28;20430;-74
2023/03/04 11:50:26;;;;;;;51.57;27.53;;;4.00;99.90;;;;;;5013521;28;20929;-75
2023/03/04 11:53:15;;;;;;;65.40;30.10;;;3.90;99.90;;;;;;5001197;28;20907;-75
2023/03/04 11:56:14;;;;;;;59.73;29.63;;;4.00;99.90;;;;;;4965382;28;20441;-73
2023/03/04 11:59:13;;;;;;;50.43;27.17;;;4.10;99.90;;;;;;5006458;28;20796;-75
2023/03/04 12:01:50;;;;;;;58.90;30.43;;;4.10;99.90;;;;;;5007402;28;20459;-74
2023/03/04 12:04:18;;;;;;;55.10;28.60;;;4.10;99.90;;;;;;5009711;28;20437;-72
2023/03/04 12:06:53;;;;;;;59.83;29.73;;;4.20;99.90;;;;;;5012999;28;20486;-73
2023/03/04 12:09:38;;;;;;;56.97;29.97;;;4.20;99.90;;;;;;5004866;28;20908;-72
2023/03/04 12:12:34;;;;;;;56.87;29.23;;;4.10;99.90;;;;;;5000591;28;20437;-72
2023/03/04 12:15:19;;;;;;;51.37;26.77;;;4.00;99.90;;;;;;5000483;28;20441;-73
2023/03/04 12:18:01;;;;;;;54.70;28.33;;;3.90;99.90;;;;;;5012669;28;20775;-72
2023/03/04 12:20:58;;;;;;;54.53;28.00;;;3.90;99.90;;;;;;5012695;28;20453;-70
2023/03/04 12:23:30;;;;;;;55.30;26.40;;;3.90;99.90;;;;;;5002844;28;20777;-72
2023/03/04 12:26:07;;;;;;;59.90;29.70;;;3.90;99.90;;;;;;4997791;28;20801;-72
2023/03/04 12:28:51;;;;;;;53.90;27.60;;;4.00;99.90;;;;;;5012247;28;20412;-72
2023/03/04 12:31:27;;;;;;;58.47;27.60;;;3.90;99.90;;;;;;5006075;28;20450;-74
2023/03/04 12:34:20;;;;;;;59.40;29.60;;;3.80;99.90;;;;;;4996763;28;20459;-74
2023/03/04 12:36:59;;;;;;;53.70;27.87;;;3.80;99.90;;;;;;5012338;28;20810;-72
2023/03/04 12:39:46;;;;;;;59.20;29.80;;;3.90;99.90;;;;;;5012530;28;20793;-72
2023/03/04 12:42:44;;;;;;;55.30;28.77;;;3.90;99.90;;;;;;4994061;28;20483;-72
2023/03/04 12:45:24;;;;;;;53.43;29.60;;;3.90;99.90;;;;;;4999537;28;20487;-72
2023/03/04 12:47:59;;;;;;;59.73;30.47;;;3.90;99.90;;;;;;5012130;28;20427;-72
2023/03/04 12:50:38;;;;;;;59.97;28.73;;;4.00;99.90;;;;;;5012527;28;20788;-72
2023/03/04 12:53:50;;;;;;;62.93;31.67;;;4.10;99.90;;;;;;5005311;28;20895;-73
2023/03/04 12:56:50;;;;;;;67.63;30.83;;;4.00;99.90;;;;;;5011908;28;20433;-72
2023/03/04 12:59:19;;;;;;;59.30;29.23;;;4.00;99.90;;;;;;4976798;28;20440;-73
2023/03/04 13:02:22;;;;;;;59.50;30.20;;;4.00;99.90;;;;;;5003411;28;20501;-74
2023/03/04 13:05:06;;;;;;;58.80;29.60;;;3.90;99.90;;;;;;5011774;28;20447;-73
2023/03/04 13:07:38;;;;;;;63.23;30.40;;;3.90;99.90;;;;;;5011828;28;20419;-75
2023/03/04 13:10:13;;;;;;;62.83;28.63;;;3.90;99.90;;;;;;5008795;28;21115;-72
2023/03/04 13:12:50;;;;;;;59.63;28.73;;;3.80;99.90;;;;;;5000166;28;20908;-74
2023/03/04 13:15:25;;;;;;;61.77;28.90;;;3.90;99.90;;;;;;5012098;28;20427;-72
2023/03/04 13:18:16;;;;;;;54.33;27.73;;;3.80;99.90;;;;;;5012147;28;20419;-73
2023/03/04 13:20:42;;;;;;;61.50;26.13;;;3.70;99.90;;;;;;5015943;28;20506;-73
2023/03/04 13:23:13;;;;;;;46.30;22.97;;;3.60;99.90;;;;;;4993387;28;20432;-72
2023/03/04 13:25:44;;;;;;;50.10;24.50;;;3.60;99.90;;;;;;5003077;28;20493;-72
2023/03/04 13:28:12;;;;;;;47.63;24.97;;;3.60;99.90;;;;;;5012514;28;21259;-73
2023/03/04 13:30:37;;;;;;;44.00;23.23;;;3.60;99.90;;;;;;5011403;28;20479;-75
2023/03/04 13:33:15;;;;;;;42.83;23.43;;;3.70;99.90;;;;;;5005317;28;21418;-73
2023/03/04 13:35:46;;;;;;;41.40;21.20;;;3.80;99.90;;;;;;5008441;28;20203;-73
2023/03/04 13:38:21;;;;;;;43.07;23.97;;;3.90;99.90;;;;;;5010902;28;20420;-72
2023/03/04 13:41:15;;;;;;;41.63;21.23;;;3.90;99.90;;;;;;5003110;28;20580;-72
2023/03/04 13:43:41;;;;;;;34.23;19.37;;;3.90;99.90;;;;;;5007426;28;20432;-74
2023/03/04 13:46:19;;;;;;;36.00;21.30;;;3.90;99.90;;;;;;5011492;28;20472;-73
2023/03/04 13:48:51;;;;;;;45.00;22.73;;;3.90;99.90;;;;;;5008200;28;20421;-72
2023/03/04 13:51:41;;;;;;;45.13;20.87;;;3.90;99.90;;;;;;4996381;28;20958;-73
2023/03/04 13:54:27;;;;;;;37.90;15.50;;;3.90;99.90;;;;;;4999455;28;20423;-73
2023/03/04 13:56:59;;;;;;;30.67;16.37;;;3.80;99.90;;;;;;5010965;28;20435;-74
2023/03/04 13:59:43;;;;;;;31.70;17.07;;;3.80;99.90;;;;;;5011063;28;20445;-73
2023/03/04 14:02:18;;;;;;;31.83;16.30;;;3.80;99.90;;;;;;4992431;28;20477;-73
2023/03/04 14:04:53;;;;;;;27.20;14.80;;;3.80;99.90;;;;;;5010942;28;20428;-72
2023/03/04 14:07:30;;;;;;;40.60;17.50;;;3.80;99.90;;;;;;5006844;28;20424;-73
2023/03/04 14:10:04;;;;;;;30.90;15.77;;;3.80;99.90;;;;;;5010525;28;20479;-72
2023/03/04 14:12:36;;;;;;;35.20;16.83;;;3.80;99.90;;;;;;5005272;28;20455;-73
2023/03/04 14:15:26;;;;;;;34.07;15.50;;;3.70;99.90;;;;;;4995974;28;20778;-73
2023/03/04 14:17:55;;;;;;;39.00;15.90;;;3.70;99.90;;;;;;5003349;28;20428;-73
2023/03/04 14:20:34;;;;;;;42.10;15.70;;;3.70;99.90;;;;;;5005957;28;20425;-73